createdAt,value
2022-12-14T00:01:10.189Z,-6.73
2022-12-14T00:03:33.871Z,-6.60
2022-12-14T00:05:57.498Z,-6.66
2022-12-14T00:08:22.615Z,-6.57
2022-12-14T00:10:46.515Z,-6.68
2022-12-14T00:13:15.918Z,-6.69
2022-12-14T00:15:39.812Z,-6.61
2022-12-14T00:18:03.660Z,-6.67
2022-12-14T00:20:28.114Z,-6.64
2022-12-14T00:22:51.841Z,-6.67
2022-12-14T00:25:16.876Z,-6.62
2022-12-14T00:27:44.838Z,-6.72
2022-12-14T00:30:10.032Z,-6.79
2022-12-14T00:32:35.255Z,-6.74
2022-12-14T00:35:01.477Z,-6.76
2022-12-14T00:37:25.112Z,-6.83
2022-12-14T00:39:48.870Z,-6.78
2022-12-14T00:42:13.896Z,-6.83
2022-12-14T00:44:37.457Z,-6.82
2022-12-14T00:47:02.476Z,-6.78
2022-12-14T00:49:26.055Z,-6.86
2022-12-14T00:51:49.899Z,-6.76
2022-12-14T00:54:13.483Z,-6.72
2022-12-14T00:56:37.210Z,-6.89
2022-12-14T00:59:02.240Z,-6.85
2022-12-14T01:01:26.135Z,-6.93
2022-12-14T01:03:50.355Z,-6.76
2022-12-14T01:06:20.488Z,-6.80
2022-12-14T01:08:44.152Z,-6.82
2022-12-14T01:11:08.794Z,-6.89
2022-12-14T01:13:32.499Z,-6.82
2022-12-14T01:16:05.058Z,-6.83
2022-12-14T01:18:28.725Z,-7.05
2022-12-14T01:20:52.286Z,-6.98
2022-12-14T01:23:16.526Z,-6.84
2022-12-14T01:25:40.136Z,-6.89
2022-12-14T01:28:03.940Z,-7.00
2022-12-14T01:30:27.764Z,-6.96
2022-12-14T01:32:52.812Z,-7.02
2022-12-14T01:35:17.393Z,-6.99
2022-12-14T01:37:41.161Z,-6.98
2022-12-14T01:40:05.340Z,-7.01
2022-12-14T01:42:29.011Z,-7.12
2022-12-14T01:44:59.258Z,-7.01
2022-12-14T01:47:38.379Z,-6.93
2022-12-14T01:50:10.596Z,-6.95
2022-12-14T01:52:40.577Z,-6.95
2022-12-14T01:55:07.926Z,-6.87
2022-12-14T01:57:37.095Z,-7.01
2022-12-14T02:00:06.960Z,-7.09
2022-12-14T02:02:32.891Z,-7.07
2022-12-14T02:05:03.326Z,-7.06
2022-12-14T02:07:30.014Z,-6.96
2022-12-14T02:09:54.257Z,-6.92
2022-12-14T02:12:22.136Z,-6.92
2022-12-14T02:14:46.237Z,-6.89
2022-12-14T02:17:13.068Z,-6.89
2022-12-14T02:19:37.973Z,-6.87
2022-12-14T02:22:34.292Z,-6.95
2022-12-14T02:25:22.100Z,-6.91
2022-12-14T02:28:33.038Z,-6.93
2022-12-14T02:31:04.658Z,-7.03
2022-12-14T02:33:44.107Z,-7.01
2022-12-14T02:36:18.173Z,-7.08
2022-12-14T02:38:53.586Z,-6.98
2022-12-14T02:41:25.351Z,-7.12
2022-12-14T02:43:58.988Z,-7.08
2022-12-14T02:46:30.584Z,-6.98
2022-12-14T02:49:03.304Z,-7.06
2022-12-14T02:51:41.134Z,-7.06
2022-12-14T02:54:11.188Z,-7.16
2022-12-14T02:56:42.755Z,-7.10
2022-12-14T02:59:10.241Z,-7.12
2022-12-14T03:01:38.244Z,-7.17
2022-12-14T03:04:03.599Z,-7.23
2022-12-14T03:06:27.628Z,-7.24
2022-12-14T03:08:51.557Z,-7.12
2022-12-14T03:11:22.220Z,-7.16
2022-12-14T03:13:51.595Z,-7.20
2022-12-14T03:16:21.319Z,-7.24
2022-12-14T03:18:51.542Z,-7.23
2022-12-14T03:21:19.741Z,-7.19
2022-12-14T03:23:46.983Z,-7.13
2022-12-14T03:26:17.235Z,-7.19
2022-12-14T03:28:48.240Z,-7.17
2022-12-14T03:31:16.644Z,-7.24
2022-12-14T03:33:42.811Z,-7.14
2022-12-14T03:36:14.692Z,-7.18
2022-12-14T03:38:43.050Z,-7.17
2022-12-14T03:41:20.313Z,-7.22
2022-12-14T03:43:59.392Z,-7.12
2022-12-14T03:46:33.694Z,-7.17
2022-12-14T03:49:05.849Z,-7.27
2022-12-14T03:51:40.407Z,-7.10
2022-12-14T03:54:13.562Z,-7.08
2022-12-14T03:56:51.156Z,-7.20
2022-12-14T03:59:24.816Z,-7.12
2022-12-14T04:01:55.792Z,-7.21
2022-12-14T04:04:25.389Z,-7.13
2022-12-14T04:07:01.277Z,-7.18
2022-12-14T04:09:34.521Z,-7.18
2022-12-14T04:12:21.728Z,-7.24
2022-12-14T04:15:23.306Z,-7.27
2022-12-14T04:18:12.018Z,-7.25
2022-12-14T04:20:44.678Z,-7.29
2022-12-14T04:23:37.904Z,-7.20
2022-12-14T04:26:05.202Z,-7.24
2022-12-14T04:28:52.483Z,-7.26
2022-12-14T04:31:22.138Z,-7.19
2022-12-14T04:33:55.984Z,-7.30
2022-12-14T04:36:25.581Z,-7.40
2022-12-14T04:38:56.738Z,-7.44
2022-12-14T04:41:26.189Z,-7.47
2022-12-14T04:43:52.297Z,-7.43
2022-12-14T04:46:20.901Z,-7.36
2022-12-14T04:48:51.993Z,-7.32
2022-12-14T04:51:25.803Z,-7.38
2022-12-14T04:53:55.929Z,-7.46
2022-12-14T04:56:26.139Z,-7.36
2022-12-14T04:58:50.365Z,-7.63
2022-12-14T05:01:32.674Z,-7.46
2022-12-14T05:04:09.612Z,-7.55
2022-12-14T05:06:45.584Z,-7.50
2022-12-14T05:09:19.100Z,-7.45
2022-12-14T05:11:53.506Z,-7.49
2022-12-14T05:14:25.358Z,-7.58
2022-12-14T05:16:50.424Z,-7.46
2022-12-14T05:19:15.960Z,-7.44
2022-12-14T05:21:48.421Z,-7.39
2022-12-14T05:24:13.477Z,-7.35
2022-12-14T05:26:37.354Z,-7.38
2022-12-14T05:29:01.020Z,-7.40
2022-12-14T05:31:25.042Z,-7.26
2022-12-14T05:33:48.695Z,-7.27
2022-12-14T05:36:12.321Z,-7.11
2022-12-14T05:38:35.986Z,-7.23
2022-12-14T05:41:01.003Z,-7.22
2022-12-14T05:43:25.027Z,-7.35
2022-12-14T05:45:48.838Z,-7.35
2022-12-14T05:48:12.514Z,-7.26
2022-12-14T05:50:36.087Z,-7.16
2022-12-14T05:52:59.758Z,-7.24
2022-12-14T05:55:23.730Z,-7.11
2022-12-14T05:57:48.867Z,-7.20
2022-12-14T06:00:13.928Z,-7.11
2022-12-14T06:02:37.724Z,-7.08
2022-12-14T06:05:01.315Z,-7.04
2022-12-14T06:07:27.985Z,-7.13
2022-12-14T06:09:52.024Z,-7.09
2022-12-14T06:12:15.645Z,-7.01
2022-12-14T06:14:40.676Z,-7.01
2022-12-14T06:17:04.427Z,-7.02
2022-12-14T06:19:28.099Z,-7.04
2022-12-14T06:21:51.725Z,-7.04
2022-12-14T06:24:15.843Z,-7.03
2022-12-14T06:26:41.002Z,-7.03
2022-12-14T06:29:05.791Z,-6.95
2022-12-14T06:31:33.364Z,-6.97
2022-12-14T06:33:59.934Z,-7.06
2022-12-14T06:36:26.844Z,-7.01
2022-12-14T06:38:50.677Z,-7.05
2022-12-14T06:41:14.510Z,-7.13
2022-12-14T06:43:38.089Z,-7.16
2022-12-14T06:46:01.826Z,-7.04
2022-12-14T06:48:26.892Z,-7.05
2022-12-14T06:50:50.920Z,-7.12
2022-12-14T06:53:15.045Z,-7.13
2022-12-14T06:55:38.777Z,-7.31
2022-12-14T06:58:02.409Z,-7.24
2022-12-14T07:00:26.752Z,-7.24
2022-12-14T07:02:51.187Z,-7.24
2022-12-14T07:05:17.034Z,-7.27
2022-12-14T07:07:40.691Z,-7.25
2022-12-14T07:10:05.952Z,-7.34
2022-12-14T07:12:29.650Z,-7.35
2022-12-14T07:14:53.301Z,-7.37
2022-12-14T07:17:16.896Z,-7.44
2022-12-14T07:19:40.563Z,-7.39
2022-12-14T07:22:05.666Z,-7.46
2022-12-14T07:24:29.338Z,-7.49
2022-12-14T07:26:53.648Z,-7.52
2022-12-14T07:29:17.638Z,-7.43
2022-12-14T07:31:41.280Z,-7.53
2022-12-14T07:34:05.008Z,-7.46
2022-12-14T07:36:30.688Z,-7.39
2022-12-14T07:38:56.805Z,-7.38
2022-12-14T07:41:25.586Z,-7.50
2022-12-14T07:43:49.638Z,-7.42
2022-12-14T07:46:16.361Z,-7.45
2022-12-14T07:48:40.512Z,-7.46
2022-12-14T07:51:07.369Z,-7.50
2022-12-14T07:53:31.384Z,-7.48
2022-12-14T07:55:56.633Z,-7.40
2022-12-14T07:58:20.381Z,-7.35
2022-12-14T08:00:43.960Z,-7.34
2022-12-14T08:03:07.615Z,-7.45
2022-12-14T08:05:31.228Z,-7.50
2022-12-14T08:07:54.965Z,-7.33
2022-12-14T08:10:18.807Z,-7.27
2022-12-14T08:12:43.821Z,-7.35
2022-12-14T08:15:09.759Z,-7.22
2022-12-14T08:17:34.105Z,-7.38
2022-12-14T08:19:57.726Z,-7.23
2022-12-14T08:22:21.422Z,-7.20
2022-12-14T08:24:49.356Z,-7.21
2022-12-14T08:27:13.411Z,-7.17
2022-12-14T08:29:38.522Z,-7.19
2022-12-14T08:32:02.644Z,-7.07
2022-12-14T08:34:26.216Z,-7.00
2022-12-14T08:36:50.404Z,-6.92
2022-12-14T08:39:14.515Z,-6.83
2022-12-14T08:41:38.831Z,-6.78
2022-12-14T08:44:04.366Z,-6.83
2022-12-14T08:46:32.349Z,-6.79
2022-12-14T08:48:57.156Z,-6.65
2022-12-14T08:51:21.429Z,-6.65
2022-12-14T08:53:47.687Z,-6.59
2022-12-14T08:56:14.364Z,-6.61
2022-12-14T08:58:38.224Z,-6.40
2022-12-14T09:01:04.499Z,-6.43
2022-12-14T09:03:30.107Z,-6.38
2022-12-14T09:05:54.187Z,-6.24
2022-12-14T09:08:18.092Z,-6.22
2022-12-14T09:10:41.742Z,-6.16
2022-12-14T09:13:05.371Z,-5.96
2022-12-14T09:15:29.077Z,-5.86
2022-12-14T09:17:52.714Z,-5.84
2022-12-14T09:20:19.078Z,-5.79
2022-12-14T09:22:42.683Z,-5.65
2022-12-14T09:25:07.413Z,-5.67
2022-12-14T09:27:31.047Z,-5.56
2022-12-14T09:29:54.760Z,-5.45
2022-12-14T09:32:18.429Z,-5.26
2022-12-14T09:34:42.145Z,-5.22
2022-12-14T09:37:07.919Z,-4.99
2022-12-14T09:39:31.777Z,-4.90
2022-12-14T09:42:08.924Z,-4.82
2022-12-14T09:44:51.734Z,-4.78
2022-12-14T09:47:20.724Z,-4.55
2022-12-14T09:49:49.527Z,-4.69
2022-12-14T09:52:19.032Z,-4.61
2022-12-14T09:54:44.817Z,-4.57
2022-12-14T09:57:22.738Z,-4.56
2022-12-14T09:59:46.565Z,-4.56
2022-12-14T10:02:42.200Z,-4.30
2022-12-14T10:05:24.885Z,-4.30
2022-12-14T10:08:01.842Z,-4.26
2022-12-14T10:10:30.351Z,-4.15
2022-12-14T10:13:05.167Z,-4.19
2022-12-14T10:15:34.308Z,-4.23
2022-12-14T10:18:59.107Z,-4.03
2022-12-14T10:21:25.214Z,-4.11
2022-12-14T10:23:57.750Z,-3.99
2022-12-14T10:26:24.559Z,-3.97
2022-12-14T10:28:59.273Z,-4.12
2022-12-14T10:31:34.779Z,-4.20
2022-12-14T10:34:12.343Z,-4.06
2022-12-14T10:36:51.798Z,-3.74
2022-12-14T10:39:26.370Z,-3.53
2022-12-14T10:41:58.684Z,-3.55
2022-12-14T10:44:29.689Z,-3.50
2022-12-14T10:47:00.224Z,-3.69
2022-12-14T10:49:30.017Z,-3.75
2022-12-14T10:52:01.625Z,-3.62
2022-12-14T10:54:34.334Z,-3.43
2022-12-14T10:56:58.416Z,-3.46
2022-12-14T10:59:39.834Z,-3.34
2022-12-14T11:02:15.559Z,-3.14
2022-12-14T11:04:46.708Z,-3.27
2022-12-14T11:07:15.023Z,-3.20
2022-12-14T11:09:41.004Z,-3.08
2022-12-14T11:12:12.718Z,-3.05
2022-12-14T11:14:38.233Z,-3.16
2022-12-14T11:17:02.046Z,-3.01
2022-12-14T11:19:27.385Z,-2.97
2022-12-14T11:21:52.677Z,-2.95
2022-12-14T11:24:25.348Z,-2.85
2022-12-14T11:26:51.303Z,-2.75
2022-12-14T11:29:22.676Z,-2.60
2022-12-14T11:31:48.465Z,-2.73
2022-12-14T11:34:23.855Z,-2.68
2022-12-14T11:36:47.696Z,-2.65
2022-12-14T11:39:23.680Z,-2.66
2022-12-14T11:41:51.921Z,-2.74
2022-12-14T11:44:26.206Z,-2.59
2022-12-14T11:46:56.527Z,-2.72
2022-12-14T11:49:25.735Z,-2.61
2022-12-14T11:52:01.550Z,-2.59
2022-12-14T11:54:25.353Z,-2.51
2022-12-14T11:56:53.706Z,-2.66
2022-12-14T11:59:18.628Z,-2.56
2022-12-14T12:01:42.568Z,-2.59
2022-12-14T12:04:14.261Z,-2.48
2022-12-14T12:06:38.017Z,-2.33
2022-12-14T12:09:03.784Z,-2.65
2022-12-14T12:11:32.764Z,-2.69
2022-12-14T12:14:02.728Z,-2.51
2022-12-14T12:16:29.823Z,-2.54
2022-12-14T12:18:58.605Z,-2.44
2022-12-14T12:21:28.059Z,-2.64
2022-12-14T12:23:59.372Z,-2.65
2022-12-14T12:26:29.306Z,-2.44
2022-12-14T12:28:58.643Z,-2.46
2022-12-14T12:31:32.978Z,-2.74
2022-12-14T12:34:01.571Z,-2.68
2022-12-14T12:36:25.974Z,-2.67
2022-12-14T12:39:05.308Z,-2.88
2022-12-14T12:41:47.801Z,-2.69
2022-12-14T12:44:25.928Z,-2.64
2022-12-14T12:49:46.106Z,-2.68
2022-12-14T12:52:21.419Z,-2.60
2022-12-14T12:54:57.117Z,-2.56
2022-12-14T12:57:21.958Z,-2.77
2022-12-14T12:59:50.209Z,-2.66
2022-12-14T13:02:32.991Z,-2.71
2022-12-14T13:05:06.967Z,-2.63
2022-12-14T13:07:46.352Z,-2.58
2022-12-14T13:10:20.292Z,-2.63
2022-12-14T13:12:48.911Z,-2.65
2022-12-14T13:15:22.059Z,-2.56
2022-12-14T13:17:52.463Z,-2.61
2022-12-14T13:20:23.999Z,-2.52
2022-12-14T13:22:49.646Z,-2.37
2022-12-14T13:25:18.587Z,-2.28
2022-12-14T13:28:19.437Z,-2.46
2022-12-14T13:31:06.635Z,-2.48
2022-12-14T13:34:02.829Z,-2.44
2022-12-14T13:36:50.150Z,-2.48
2022-12-14T13:39:57.404Z,-2.50
2022-12-14T13:42:31.860Z,-2.48
2022-12-14T13:45:01.404Z,-2.34
2022-12-14T13:47:39.938Z,-2.35
2022-12-14T13:52:52.093Z,-2.45
2022-12-14T13:55:32.038Z,-2.31
2022-12-14T13:58:08.053Z,-2.66
2022-12-14T14:00:54.145Z,-2.48
2022-12-14T14:03:54.412Z,-2.49
2022-12-14T14:06:40.008Z,-2.78
2022-12-14T14:09:48.305Z,-2.64
2022-12-14T14:12:45.074Z,-2.66
2022-12-14T14:15:38.440Z,-2.79
2022-12-14T14:18:21.457Z,-2.71
2022-12-14T14:20:48.286Z,-2.82
2022-12-14T14:23:38.025Z,-2.72
2022-12-14T14:26:28.068Z,-2.88
2022-12-14T14:29:25.260Z,-2.99
2022-12-14T14:31:55.725Z,-3.22
2022-12-14T14:34:26.753Z,-2.92
2022-12-14T14:36:51.936Z,-3.06
2022-12-14T14:42:25.027Z,-3.17
2022-12-14T14:44:54.705Z,-3.20
2022-12-14T14:47:26.799Z,-3.08
2022-12-14T14:49:55.977Z,-3.15
2022-12-14T14:53:08.585Z,-3.54
2022-12-14T14:55:59.363Z,-3.50
2022-12-14T14:58:33.413Z,-3.52
2022-12-14T15:01:10.812Z,-3.44
2022-12-14T15:03:46.479Z,-3.89
2022-12-14T15:06:15.786Z,-3.76
2022-12-14T15:08:42.244Z,-3.52
2022-12-14T15:11:18.266Z,-3.54
2022-12-14T15:13:49.032Z,-3.55
2022-12-14T15:16:25.741Z,-3.76
2022-12-14T15:18:49.414Z,-3.77
2022-12-14T15:21:15.647Z,-3.87
2022-12-14T15:23:43.739Z,-3.82
2022-12-14T15:26:17.628Z,-3.93
2022-12-14T15:28:41.512Z,-4.01
2022-12-14T15:31:06.080Z,-3.98
2022-12-14T15:33:35.038Z,-3.99
2022-12-14T15:36:06.075Z,-4.03
2022-12-14T15:38:34.556Z,-4.05
2022-12-14T15:40:59.950Z,-4.06
2022-12-14T15:43:26.869Z,-4.07
2022-12-14T15:45:54.283Z,-4.28
2022-12-14T15:48:24.715Z,-4.36
2022-12-14T15:50:52.784Z,-4.38
2022-12-14T15:53:26.213Z,-4.36
2022-12-14T15:55:59.839Z,-4.54
2022-12-14T15:58:31.949Z,-4.57
2022-12-14T16:00:59.765Z,-4.52
2022-12-14T16:03:32.801Z,-4.80
2022-12-14T16:05:57.949Z,-4.81
2022-12-14T16:08:22.474Z,-4.90
2022-12-14T16:10:47.700Z,-5.03
2022-12-14T16:13:21.905Z,-4.98
2022-12-14T16:15:47.303Z,-5.18
2022-12-14T16:18:15.580Z,-5.26
2022-12-14T16:20:40.189Z,-5.12
2022-12-14T16:23:07.669Z,-5.07
2022-12-14T16:25:33.449Z,-4.99
2022-12-14T16:27:57.117Z,-5.06
2022-12-14T16:30:30.754Z,-5.03
2022-12-14T16:33:17.366Z,-5.10
2022-12-14T16:35:41.208Z,-5.18
2022-12-14T16:38:10.146Z,-5.16
2022-12-14T16:40:37.189Z,-5.16
2022-12-14T16:43:01.146Z,-5.29
2022-12-14T16:46:13.202Z,-5.23
2022-12-14T16:48:45.158Z,-5.22
2022-12-14T16:51:58.111Z,-5.26
2022-12-14T16:54:27.268Z,-5.45
2022-12-14T16:56:59.174Z,-5.48
2022-12-14T16:59:28.454Z,-5.47
2022-12-14T17:01:52.679Z,-5.47
2022-12-14T17:04:20.376Z,-5.57
2022-12-14T17:06:50.433Z,-5.52
2022-12-14T17:09:20.371Z,-5.65
2022-12-14T17:11:44.654Z,-5.65
2022-12-14T17:14:08.295Z,-5.78
2022-12-14T17:16:32.075Z,-5.89
2022-12-14T17:18:55.773Z,-5.77
2022-12-14T17:21:26.572Z,-5.80
2022-12-14T17:23:50.632Z,-5.88
2022-12-14T17:26:22.192Z,-5.90
2022-12-14T17:28:45.910Z,-5.88
2022-12-14T17:31:12.595Z,-5.87
2022-12-14T17:33:36.429Z,-6.13
2022-12-14T17:36:00.015Z,-6.00
2022-12-14T17:38:25.550Z,-6.01
2022-12-14T17:40:51.391Z,-6.05
2022-12-14T17:43:20.136Z,-6.02
2022-12-14T17:45:44.190Z,-6.08
2022-12-14T17:48:11.591Z,-6.19
2022-12-14T17:50:35.328Z,-6.23
2022-12-14T17:52:59.385Z,-6.11
2022-12-14T17:55:27.320Z,-6.18
2022-12-14T17:57:52.197Z,-6.27
2022-12-14T18:00:38.541Z,-6.22
2022-12-14T18:03:02.685Z,-6.25
2022-12-14T18:05:26.462Z,-6.56
2022-12-14T18:07:50.405Z,-6.54
2022-12-14T18:10:17.723Z,-6.51
2022-12-14T18:12:43.213Z,-6.63
2022-12-14T18:15:17.414Z,-6.72
2022-12-14T18:17:41.126Z,-6.60
2022-12-14T18:20:05.073Z,-6.69
2022-12-14T18:22:28.809Z,-6.81
2022-12-14T18:24:52.376Z,-6.72
2022-12-14T18:27:17.052Z,-6.70
2022-12-14T18:29:42.130Z,-6.69
2022-12-14T18:32:06.705Z,-6.73
2022-12-14T18:34:30.255Z,-6.70
2022-12-14T18:36:54.320Z,-6.81
2022-12-14T18:39:18.283Z,-6.91
2022-12-14T18:41:42.004Z,-6.93
2022-12-14T18:44:06.010Z,-6.98
2022-12-14T18:46:31.504Z,-6.98
2022-12-14T18:48:55.670Z,-6.94
2022-12-14T18:51:23.541Z,-6.86
2022-12-14T18:53:47.283Z,-6.85
2022-12-14T18:56:12.849Z,-6.95
2022-12-14T18:58:36.470Z,-7.02
2022-12-14T19:01:01.372Z,-6.86
2022-12-14T19:03:29.300Z,-6.96
2022-12-14T19:05:53.855Z,-7.10
2022-12-14T19:08:17.539Z,-7.16
2022-12-14T19:10:44.161Z,-7.10
2022-12-14T19:13:09.655Z,-7.32
2022-12-14T19:15:36.184Z,-7.22
2022-12-14T19:18:00.533Z,-7.22
2022-12-14T19:20:27.065Z,-7.30
2022-12-14T19:22:51.602Z,-7.28
2022-12-14T19:25:15.792Z,-7.24
2022-12-14T19:30:25.128Z,-7.33
2022-12-14T19:32:48.691Z,-7.35
2022-12-14T19:35:12.878Z,-7.34
2022-12-14T19:37:37.918Z,-7.34
2022-12-14T19:40:02.557Z,-7.31
2022-12-14T19:42:26.610Z,-7.46
2022-12-14T19:44:50.283Z,-7.40
2022-12-14T19:47:14.185Z,-7.48
2022-12-14T19:49:37.976Z,-7.43
2022-12-14T19:52:01.629Z,-7.52
2022-12-14T19:54:27.906Z,-7.68
2022-12-14T19:56:52.129Z,-7.53
2022-12-14T19:59:15.749Z,-7.57
2022-12-14T20:01:44.675Z,-7.51
2022-12-14T20:04:11.545Z,-7.57
2022-12-14T20:06:35.429Z,-7.54
2022-12-14T20:08:59.860Z,-7.50
2022-12-14T20:11:25.376Z,-7.75
2022-12-14T20:13:54.701Z,-7.61
2022-12-14T20:16:22.140Z,-7.64
2022-12-14T20:18:46.411Z,-7.78
2022-12-14T20:21:15.009Z,-7.83
2022-12-14T20:23:42.629Z,-7.71
2022-12-14T20:26:10.532Z,-7.72
2022-12-14T20:28:35.778Z,-7.76
2022-12-14T20:31:00.602Z,-7.81
2022-12-14T20:33:29.914Z,-7.80
2022-12-14T20:35:54.708Z,-7.78
2022-12-14T20:38:18.365Z,-7.89
2022-12-14T20:40:41.993Z,-7.93
2022-12-14T20:43:05.650Z,-7.91
2022-12-14T20:45:30.731Z,-7.95
2022-12-14T20:47:55.487Z,-7.95
2022-12-14T20:50:19.342Z,-7.98
2022-12-14T20:52:42.966Z,-8.06
2022-12-14T20:55:07.326Z,-8.02
2022-12-14T20:57:33.163Z,-8.09
2022-12-14T20:59:59.339Z,-8.11
2022-12-14T21:02:25.806Z,-8.14
2022-12-14T21:04:49.551Z,-8.24
2022-12-14T21:07:13.187Z,-8.26
2022-12-14T21:09:38.112Z,-8.34
2022-12-14T21:12:19.164Z,-8.29
2022-12-14T21:14:44.803Z,-8.31
2022-12-14T21:17:08.398Z,-8.37
2022-12-14T21:19:35.948Z,-8.33
2022-12-14T21:21:59.784Z,-8.40
2022-12-14T21:25:00.403Z,-8.53
2022-12-14T21:27:10.225Z,-8.43
2022-12-14T21:29:34.220Z,-8.41
2022-12-14T21:31:58.038Z,-8.44
2022-12-14T21:34:23.855Z,-8.45
2022-12-14T21:36:49.458Z,-8.63
2022-12-14T21:39:15.067Z,-8.55
2022-12-14T21:41:55.960Z,-8.47
2022-12-14T21:44:19.735Z,-8.57
2022-12-14T21:46:43.337Z,-8.52
2022-12-14T21:49:07.618Z,-8.51
2022-12-14T21:51:31.359Z,-8.55
2022-12-14T21:54:00.724Z,-8.49
2022-12-14T21:56:41.478Z,-8.61
2022-12-14T21:59:05.189Z,-8.49
2022-12-14T22:01:28.927Z,-8.55
2022-12-14T22:03:54.158Z,-8.67
2022-12-14T22:06:17.815Z,-8.60
2022-12-14T22:08:41.497Z,-8.74
2022-12-14T22:11:07.130Z,-8.72
2022-12-14T22:13:31.399Z,-8.71
2022-12-14T22:15:55.310Z,-8.72
2022-12-14T22:18:18.987Z,-8.75
2022-12-14T22:20:42.660Z,-8.83
2022-12-14T22:23:06.306Z,-8.88
2022-12-14T22:25:29.926Z,-8.90
2022-12-14T22:27:55.075Z,-8.78
2022-12-14T22:30:19.167Z,-8.67
2022-12-14T22:32:43.226Z,-8.67
2022-12-14T22:35:09.628Z,-8.68
2022-12-14T22:37:33.322Z,-8.69
2022-12-14T22:39:57.014Z,-8.90
2022-12-14T22:42:20.689Z,-8.91
2022-12-14T22:44:45.866Z,-9.11
2022-12-14T22:47:09.549Z,-8.99
2022-12-14T22:49:33.185Z,-9.05
2022-12-14T22:51:56.881Z,-8.99
2022-12-14T22:54:25.431Z,-8.99
2022-12-14T22:56:54.080Z,-9.04
2022-12-14T22:59:22.248Z,-9.16
2022-12-14T23:01:49.730Z,-9.11
2022-12-14T23:04:15.437Z,-9.06
2022-12-14T23:06:39.462Z,-9.09
2022-12-14T23:09:20.550Z,-9.28
2022-12-14T23:12:01.421Z,-9.18
2022-12-14T23:14:42.332Z,-9.20
2022-12-14T23:17:25.872Z,-9.14
2022-12-14T23:20:06.757Z,-9.23
2022-12-14T23:22:49.847Z,-9.23
2022-12-14T23:25:30.801Z,-9.19
2022-12-14T23:28:11.772Z,-9.32
2022-12-14T23:30:52.874Z,-9.24
2022-12-14T23:33:35.237Z,-9.25
2022-12-14T23:36:20.080Z,-9.29
2022-12-14T23:39:00.825Z,-9.29
2022-12-14T23:41:42.025Z,-9.28
2022-12-14T23:44:23.079Z,-9.42
2022-12-14T23:47:04.125Z,-9.47
2022-12-14T23:49:46.740Z,-9.55
2022-12-14T23:52:27.621Z,-9.53
2022-12-14T23:55:08.481Z,-9.48
2022-12-14T23:57:49.681Z,-9.62
